Time;durP1;ratioP1;P1;durP2;ratioP2;P2;SDS_P1;SDS_P2;PMS_P1;PMS_P2;Temp;Humidity;BMP_temperature;BMP_pressure;BME280_temperature;BME280_humidity;BME280_pressure;Samples;Min_cycle;Max_cycle;Signal;HPM_P1;HPM_P2
2023/10/29 00:01:02;;;;;;;1.80;1.35;;;;;;;;;;5113437;27;42660;-67
2023/10/29 00:03:30;;;;;;;2.65;1.50;;;;;;;;;;5121671;27;41324;-66
2023/10/29 00:05:58;;;;;;;2.47;1.40;;;;;;;;;;5123719;27;41723;-66
2023/10/29 00:08:28;;;;;;;2.90;1.50;;;;;;;;;;5113730;27;42378;-67
2023/10/29 00:10:56;;;;;;;2.40;1.40;;;;;;;;;;5126316;27;39869;-66
2023/10/29 00:13:25;;;;;;;2.03;1.33;;;;;;;;;;5113099;27;42625;-67
2023/10/29 00:15:53;;;;;;;2.45;1.55;;;;;;;;;;5116978;27;43202;-66
2023/10/29 00:18:21;;;;;;;2.40;1.50;;;;;;;;;;5122073;27;40871;-66
2023/10/29 00:20:49;;;;;;;2.58;1.50;;;;;;;;;;5127242;27;42676;-66
2023/10/29 00:23:17;;;;;;;1.95;1.67;;;;;;;;;;5126182;27;40216;-66
2023/10/29 00:25:46;;;;;;;1.73;1.40;;;;;;;;;;5112502;27;41359;-66
2023/10/29 00:28:14;;;;;;;1.92;1.30;;;;;;;;;;5127375;27;43748;-66
2023/10/29 00:30:42;;;;;;;2.38;1.27;;;;;;;;;;5125558;27;40536;-67
2023/10/29 00:33:11;;;;;;;2.33;1.10;;;;;;;;;;5127117;27;42686;-67
2023/10/29 00:35:39;;;;;;;1.70;1.30;;;;;;;;;;5126879;27;42634;-66
2023/10/29 00:38:07;;;;;;;2.03;1.38;;;;;;;;;;5127987;27;40565;-67
2023/10/29 00:40:38;;;;;;;2.60;1.40;;;;;;;;;;5125791;27;41483;-66
2023/10/29 00:43:07;;;;;;;1.95;1.33;;;;;;;;;;5124868;27;33654;-66
2023/10/29 00:45:36;;;;;;;3.00;1.45;;;;;;;;;;5126636;27;41522;-67
2023/10/29 00:48:05;;;;;;;2.13;1.35;;;;;;;;;;5128296;27;42732;-67
2023/10/29 00:50:33;;;;;;;1.90;1.35;;;;;;;;;;5127949;27;41100;-67
2023/10/29 00:53:01;;;;;;;1.83;1.30;;;;;;;;;;5131492;27;42368;-67
2023/10/29 00:55:29;;;;;;;2.10;1.40;;;;;;;;;;5112493;27;40726;-66
2023/10/29 00:57:57;;;;;;;1.40;1.15;;;;;;;;;;5129513;27;40392;-67
2023/10/29 01:00:27;;;;;;;2.45;1.15;;;;;;;;;;5129856;27;41794;-67
2023/10/29 01:02:56;;;;;;;2.03;1.17;;;;;;;;;;5129099;27;41696;-67
2023/10/29 01:05:23;;;;;;;1.30;1.10;;;;;;;;;;5129664;27;41464;-66
2023/10/29 01:07:52;;;;;;;2.08;1.20;;;;;;;;;;5130640;27;43111;-67
2023/10/29 01:10:19;;;;;;;1.83;1.17;;;;;;;;;;5129934;27;41017;-66
2023/10/29 01:12:47;;;;;;;1.55;1.10;;;;;;;;;;5117523;27;42002;-66
2023/10/29 01:15:15;;;;;;;1.65;1.05;;;;;;;;;;5111056;27;42172;-67
2023/10/29 01:17:44;;;;;;;1.60;1.20;;;;;;;;;;5130000;27;41400;-67
2023/10/29 01:20:13;;;;;;;1.30;1.13;;;;;;;;;;5129269;27;42566;-67
2023/10/29 01:22:40;;;;;;;2.05;1.25;;;;;;;;;;5129773;27;43050;-67
2023/10/29 01:25:10;;;;;;;1.55;1.10;;;;;;;;;;5129577;27;40414;-66
2023/10/29 01:27:38;;;;;;;3.10;1.08;;;;;;;;;;5115432;27;42709;-66
2023/10/29 01:30:06;;;;;;;1.45;1.05;;;;;;;;;;5130118;27;41236;-66
2023/10/29 01:32:34;;;;;;;2.58;1.42;;;;;;;;;;5109701;27;40978;-66
2023/10/29 01:35:04;;;;;;;1.45;1.05;;;;;;;;;;5111269;27;41227;-66
2023/10/29 01:37:32;;;;;;;1.73;1.10;;;;;;;;;;5129827;27;40037;-66
2023/10/29 01:40:00;;;;;;;1.55;1.20;;;;;;;;;;5129698;27;42519;-67
2023/10/29 01:42:28;;;;;;;1.27;1.00;;;;;;;;;;5110008;27;40740;-67
2023/10/29 01:44:56;;;;;;;1.88;1.17;;;;;;;;;;5129973;27;39860;-66
2023/10/29 01:47:24;;;;;;;1.10;0.85;;;;;;;;;;5127795;27;41525;-66
2023/10/29 01:49:52;;;;;;;1.55;1.10;;;;;;;;;;5127869;27;41341;-66
2023/10/29 01:52:21;;;;;;;2.08;1.05;;;;;;;;;;5109674;27;40363;-67
2023/10/29 01:54:49;;;;;;;1.83;1.10;;;;;;;;;;5120187;27;42157;-66
2023/10/29 01:57:17;;;;;;;2.38;1.27;;;;;;;;;;5128719;27;41283;-67
2023/10/29 01:59:45;;;;;;;1.40;1.00;;;;;;;;;;5110232;27;40100;-66
2023/10/29 02:02:13;;;;;;;1.73;1.23;;;;;;;;;;5108968;27;40441;-66
2023/10/29 02:04:41;;;;;;;1.48;1.17;;;;;;;;;;5128384;27;39865;-66
2023/10/29 02:07:09;;;;;;;2.28;1.08;;;;;;;;;;5128462;27;41615;-67
2023/10/29 02:09:40;;;;;;;1.73;1.27;;;;;;;;;;5092970;27;43137;-66
2023/10/29 02:12:08;;;;;;;1.75;1.20;;;;;;;;;;5098672;27;40962;-66
2023/10/29 02:14:39;;;;;;;1.40;1.00;;;;;;;;;;5115332;27;43078;-67
2023/10/29 02:17:07;;;;;;;1.73;1.00;;;;;;;;;;5115974;27;40568;-66
2023/10/29 02:19:35;;;;;;;1.55;1.10;;;;;;;;;;5127348;27;42412;-67
2023/10/29 02:22:05;;;;;;;1.20;0.90;;;;;;;;;;5121705;27;42863;-67
2023/10/29 02:24:33;;;;;;;2.40;1.05;;;;;;;;;;5126634;27;40146;-66
2023/10/29 02:27:01;;;;;;;2.08;1.02;;;;;;;;;;5121345;27;42202;-67
2023/10/29 02:29:29;;;;;;;1.80;1.10;;;;;;;;;;5119947;27;43100;-67
2023/10/29 02:31:57;;;;;;;1.35;1.00;;;;;;;;;;5118525;27;40383;-67
2023/10/29 02:34:25;;;;;;;2.92;1.05;;;;;;;;;;5113935;27;43128;-67
2023/10/29 02:36:54;;;;;;;1.05;0.93;;;;;;;;;;5127570;27;39985;-67
2023/10/29 02:39:23;;;;;;;1.00;0.73;;;;;;;;;;5129026;27;41264;-67
2023/10/29 02:41:51;;;;;;;1.10;0.85;;;;;;;;;;5128749;27;41825;-66
2023/10/29 02:44:19;;;;;;;0.93;0.80;;;;;;;;;;5093914;27;39610;-67
2023/10/29 02:46:47;;;;;;;2.28;0.90;;;;;;;;;;5127503;27;42787;-66
2023/10/29 02:49:15;;;;;;;1.23;0.90;;;;;;;;;;5128698;27;41262;-67
2023/10/29 02:51:45;;;;;;;2.47;1.10;;;;;;;;;;5128651;27;40782;-67
2023/10/29 02:54:13;;;;;;;1.20;0.90;;;;;;;;;;5128900;27;42637;-66
2023/10/29 02:56:42;;;;;;;1.77;1.10;;;;;;;;;;5127341;27;40546;-67
2023/10/29 02:59:10;;;;;;;1.00;0.90;;;;;;;;;;5128973;27;41616;-67
2023/10/29 03:01:38;;;;;;;1.00;0.90;;;;;;;;;;5103637;27;40630;-67
2023/10/29 03:04:06;;;;;;;1.15;0.98;;;;;;;;;;5128020;27;40952;-67
2023/10/29 03:06:36;;;;;;;1.02;0.90;;;;;;;;;;5128136;27;41785;-67
2023/10/29 03:09:05;;;;;;;1.02;0.80;;;;;;;;;;5127845;27;42785;-67
2023/10/29 03:11:32;;;;;;;0.95;0.85;;;;;;;;;;5127309;27;41389;-67
2023/10/29 03:14:02;;;;;;;1.00;0.90;;;;;;;;;;5127938;27;41707;-67
2023/10/29 03:16:30;;;;;;;1.17;0.90;;;;;;;;;;5125364;27;39923;-67
2023/10/29 03:18:58;;;;;;;1.10;0.85;;;;;;;;;;5126807;27;41829;-67
2023/10/29 03:21:26;;;;;;;1.75;0.80;;;;;;;;;;5104404;27;42961;-67
2023/10/29 03:23:54;;;;;;;0.88;0.75;;;;;;;;;;5126963;27;41298;-67
2023/10/29 03:26:22;;;;;;;1.05;0.80;;;;;;;;;;5108745;27;40760;-66
2023/10/29 03:28:50;;;;;;;1.17;0.80;;;;;;;;;;5127922;27;44160;-67
2023/10/29 03:31:19;;;;;;;1.80;1.00;;;;;;;;;;5127733;27;40235;-67
2023/10/29 03:33:46;;;;;;;1.50;0.80;;;;;;;;;;5123673;27;41096;-67
2023/10/29 03:36:14;;;;;;;1.20;0.80;;;;;;;;;;5116379;27;42668;-67
2023/10/29 03:38:42;;;;;;;1.00;0.80;;;;;;;;;;5122963;27;41659;-67
2023/10/29 03:41:18;;;;;;;1.13;0.90;;;;;;;;;;5095529;27;40494;-67
2023/10/29 03:43:46;;;;;;;1.17;0.75;;;;;;;;;;5113820;27;39768;-67
2023/10/29 03:46:14;;;;;;;0.88;0.73;;;;;;;;;;5127181;27;42391;-66
2023/10/29 03:48:45;;;;;;;1.13;0.80;;;;;;;;;;5102568;27;42214;-66
2023/10/29 03:51:13;;;;;;;1.17;0.68;;;;;;;;;;5107627;27;38827;-66
2023/10/29 03:53:41;;;;;;;0.85;0.70;;;;;;;;;;5121113;27;41977;-67
2023/10/29 03:56:09;;;;;;;1.98;0.90;;;;;;;;;;5124543;27;43100;-67
2023/10/29 03:58:37;;;;;;;1.08;0.90;;;;;;;;;;5127451;27;40230;-66
2023/10/29 04:01:05;;;;;;;1.00;0.70;;;;;;;;;;5127012;27;42099;-67
2023/10/29 04:03:33;;;;;;;1.52;1.05;;;;;;;;;;5108292;27;39767;-67
2023/10/29 04:06:08;;;;;;;1.20;0.73;;;;;;;;;;5105916;28;42465;-66
2023/10/29 04:08:36;;;;;;;0.93;0.70;;;;;;;;;;5115289;27;41524;-67
2023/10/29 04:11:04;;;;;;;0.82;0.70;;;;;;;;;;5113644;27;40337;-67
2023/10/29 04:13:33;;;;;;;0.95;0.80;;;;;;;;;;5127219;27;42733;-67
2023/10/29 04:16:01;;;;;;;1.45;0.80;;;;;;;;;;5126550;27;42187;-67
2023/10/29 04:18:31;;;;;;;0.80;0.63;;;;;;;;;;5126761;27;39824;-67
2023/10/29 04:21:00;;;;;;;1.15;0.93;;;;;;;;;;5126380;27;41694;-67
2023/10/29 04:23:30;;;;;;;1.13;0.80;;;;;;;;;;5126552;27;40281;-67
2023/10/29 04:25:58;;;;;;;0.80;0.50;;;;;;;;;;5129498;27;41776;-66
2023/10/29 04:28:25;;;;;;;0.98;0.70;;;;;;;;;;5130319;27;42146;-67
2023/10/29 04:30:55;;;;;;;1.33;0.80;;;;;;;;;;5130166;27;39997;-67
2023/10/29 04:33:23;;;;;;;0.70;0.60;;;;;;;;;;5130672;27;42433;-67
2023/10/29 04:35:52;;;;;;;1.10;0.95;;;;;;;;;;5115086;27;42890;-67
2023/10/29 04:38:20;;;;;;;1.33;0.60;;;;;;;;;;5130914;27;39788;-67
2023/10/29 04:40:50;;;;;;;0.88;0.60;;;;;;;;;;5129920;27;41880;-66
2023/10/29 04:43:18;;;;;;;0.57;0.57;;;;;;;;;;5129653;27;42250;-67
2023/10/29 04:45:46;;;;;;;1.08;0.70;;;;;;;;;;5129597;27;41073;-67
2023/10/29 04:48:16;;;;;;;1.25;0.80;;;;;;;;;;5130372;27;41599;-67
2023/10/29 04:50:44;;;;;;;1.00;0.70;;;;;;;;;;5112705;27;41572;-67
2023/10/29 04:53:12;;;;;;;0.60;0.60;;;;;;;;;;5116274;27;41205;-66
2023/10/29 04:55:40;;;;;;;0.82;0.65;;;;;;;;;;5129842;27;41618;-67
2023/10/29 04:58:09;;;;;;;0.80;0.65;;;;;;;;;;5128791;27;39654;-67
2023/10/29 05:00:37;;;;;;;0.77;0.60;;;;;;;;;;5130392;27;41668;-67
2023/10/29 05:03:05;;;;;;;2.80;0.77;;;;;;;;;;5129426;27;42654;-67
2023/10/29 05:05:33;;;;;;;1.33;0.70;;;;;;;;;;5129291;27;42675;-67
2023/10/29 05:08:01;;;;;;;1.35;0.70;;;;;;;;;;5130115;27;41979;-66
2023/10/29 05:10:29;;;;;;;1.02;0.73;;;;;;;;;;5128802;27;40246;-67
2023/10/29 05:12:57;;;;;;;1.08;0.70;;;;;;;;;;5129468;27;42542;-67
2023/10/29 05:15:26;;;;;;;1.02;0.70;;;;;;;;;;5130477;27;42654;-67
2023/10/29 05:17:54;;;;;;;0.88;0.70;;;;;;;;;;5129091;27;40073;-67
2023/10/29 05:20:22;;;;;;;0.95;0.60;;;;;;;;;;5129872;27;41342;-66
2023/10/29 05:22:50;;;;;;;0.82;0.50;;;;;;;;;;5129354;27;42887;-67
2023/10/29 05:25:18;;;;;;;1.17;0.68;;;;;;;;;;5121937;27;41958;-66
2023/10/29 05:27:50;;;;;;;0.55;0.55;;;;;;;;;;5128835;27;41953;-67
2023/10/29 05:30:18;;;;;;;0.93;0.63;;;;;;;;;;5130285;27;40530;-67
2023/10/29 05:32:47;;;;;;;0.88;0.65;;;;;;;;;;5128181;27;41638;-67
2023/10/29 05:35:15;;;;;;;0.75;0.60;;;;;;;;;;5116082;27;42291;-67
2023/10/29 05:37:43;;;;;;;0.85;0.63;;;;;;;;;;5113454;27;39865;-67
2023/10/29 05:40:11;;;;;;;0.90;0.50;;;;;;;;;;5129018;27;41206;-67
2023/10/29 05:42:39;;;;;;;1.17;0.80;;;;;;;;;;5124245;27;41461;-67
2023/10/29 05:45:07;;;;;;;0.98;0.55;;;;;;;;;;5120442;27;41918;-67
2023/10/29 05:47:35;;;;;;;0.88;0.70;;;;;;;;;;5114945;27;42624;-67
2023/10/29 05:50:06;;;;;;;0.90;0.60;;;;;;;;;;5128622;27;40740;-67
2023/10/29 05:52:34;;;;;;;0.77;0.60;;;;;;;;;;5123513;27;41566;-67
2023/10/29 05:55:03;;;;;;;1.10;0.60;;;;;;;;;;5129640;27;41622;-67
2023/10/29 05:57:31;;;;;;;1.00;0.40;;;;;;;;;;5115377;27;40029;-67
2023/10/29 05:59:59;;;;;;;0.77;0.55;;;;;;;;;;5128445;27;41564;-67
2023/10/29 06:02:27;;;;;;;0.65;0.40;;;;;;;;;;5128315;27;43444;-67
2023/10/29 06:04:55;;;;;;;1.65;0.73;;;;;;;;;;5128794;27;41203;-67
2023/10/29 06:07:25;;;;;;;1.20;0.77;;;;;;;;;;5128167;27;40849;-67
2023/10/29 06:09:52;;;;;;;0.65;0.40;;;;;;;;;;5129321;27;43880;-67
2023/10/29 06:12:20;;;;;;;0.88;0.63;;;;;;;;;;5128839;27;42219;-67
2023/10/29 06:14:48;;;;;;;1.13;0.63;;;;;;;;;;5127912;27;42093;-67
2023/10/29 06:17:17;;;;;;;0.60;0.50;;;;;;;;;;5129027;27;40328;-67
2023/10/29 06:19:54;;;;;;;0.93;0.52;;;;;;;;;;5128699;27;42146;-67
2023/10/29 06:22:22;;;;;;;1.15;0.80;;;;;;;;;;5127177;27;42785;-67
2023/10/29 06:24:51;;;;;;;0.70;0.50;;;;;;;;;;5127977;27;40447;-67
2023/10/29 06:27:19;;;;;;;0.77;0.45;;;;;;;;;;5129316;27;41572;-67
2023/10/29 06:29:47;;;;;;;0.90;0.50;;;;;;;;;;5113663;27;42996;-67
2023/10/29 06:32:15;;;;;;;0.73;0.57;;;;;;;;;;5129483;27;40160;-67
2023/10/29 06:34:43;;;;;;;1.00;0.57;;;;;;;;;;5122549;27;42108;-67
2023/10/29 06:37:11;;;;;;;0.55;0.40;;;;;;;;;;5128623;27;40590;-67
2023/10/29 06:39:39;;;;;;;0.43;0.40;;;;;;;;;;5128289;27;42308;-67
2023/10/29 06:42:08;;;;;;;0.50;0.50;;;;;;;;;;5128028;27;41779;-67
2023/10/29 06:44:36;;;;;;;0.90;0.70;;;;;;;;;;5123986;27;41322;-67
2023/10/29 06:47:05;;;;;;;0.60;0.40;;;;;;;;;;5128389;27;41382;-67
2023/10/29 06:49:33;;;;;;;1.13;0.47;;;;;;;;;;5126103;27;42634;-67
2023/10/29 06:52:00;;;;;;;0.80;0.55;;;;;;;;;;5127492;27;40222;-67
2023/10/29 06:54:28;;;;;;;0.50;0.50;;;;;;;;;;5123941;27;41534;-67
2023/10/29 06:56:56;;;;;;;0.70;0.50;;;;;;;;;;5127066;27;39880;-67
2023/10/29 06:59:26;;;;;;;0.77;0.43;;;;;;;;;;5128645;27;41865;-67
2023/10/29 07:01:55;;;;;;;1.27;0.50;;;;;;;;;;5113360;27;42566;-67
2023/10/29 07:04:23;;;;;;;0.75;0.40;;;;;;;;;;5127325;27;39816;-67
2023/10/29 07:06:52;;;;;;;0.90;0.60;;;;;;;;;;5127954;27;42225;-67
2023/10/29 07:09:20;;;;;;;2.00;0.50;;;;;;;;;;5127921;27;41708;-67
2023/10/29 07:11:47;;;;;;;1.10;0.55;;;;;;;;;;5116327;27;41133;-67
2023/10/29 07:14:15;;;;;;;1.75;0.47;;;;;;;;;;5126088;27;40932;-67
2023/10/29 07:16:45;;;;;;;0.95;0.60;;;;;;;;;;5126096;27;41908;-66
2023/10/29 07:19:13;;;;;;;1.38;0.60;;;;;;;;;;5127654;27;41660;-67
2023/10/29 07:21:41;;;;;;;1.00;0.50;;;;;;;;;;5117441;27;41806;-67
2023/10/29 07:24:09;;;;;;;0.43;0.40;;;;;;;;;;5121547;27;40331;-67
2023/10/29 07:26:42;;;;;;;1.38;0.60;;;;;;;;;;5120633;27;41739;-67
2023/10/29 07:29:12;;;;;;;1.77;0.60;;;;;;;;;;5123650;27;40764;-67
2023/10/29 07:31:40;;;;;;;0.60;0.50;;;;;;;;;;5108905;27;40942;-67
2023/10/29 07:34:09;;;;;;;0.75;0.47;;;;;;;;;;5111209;27;41417;-67
2023/10/29 07:36:37;;;;;;;1.25;0.43;;;;;;;;;;5109208;27;42980;-66
2023/10/29 07:39:06;;;;;;;0.68;0.40;;;;;;;;;;5114288;27;41769;-67
2023/10/29 07:41:33;;;;;;;1.17;0.40;;;;;;;;;;5109923;27;41882;-67
2023/10/29 07:44:01;;;;;;;1.35;0.50;;;;;;;;;;5113776;27;41063;-67
2023/10/29 07:46:29;;;;;;;1.00;0.50;;;;;;;;;;5111838;27;41693;-72
2023/10/29 07:48:57;;;;;;;1.13;0.60;;;;;;;;;;5114280;27;42991;-72
2023/10/29 07:51:27;;;;;;;1.98;0.40;;;;;;;;;;5122693;27;40567;-72
2023/10/29 07:53:55;;;;;;;0.60;0.45;;;;;;;;;;5121077;27;41299;-72
2023/10/29 07:56:26;;;;;;;1.50;0.60;;;;;;;;;;5127459;27;42611;-71
2023/10/29 07:58:53;;;;;;;2.90;0.50;;;;;;;;;;5124504;27;40073;-72
2023/10/29 08:01:21;;;;;;;1.52;0.55;;;;;;;;;;5118511;27;42100;-72
2023/10/29 08:03:50;;;;;;;1.50;0.50;;;;;;;;;;5117470;27;40154;-72
2023/10/29 08:06:18;;;;;;;1.20;0.43;;;;;;;;;;5115323;27;41400;-72
2023/10/29 08:08:50;;;;;;;1.67;0.47;;;;;;;;;;5114119;27;43152;-72
2023/10/29 08:11:19;;;;;;;1.05;0.45;;;;;;;;;;5118009;27;40931;-72
2023/10/29 08:13:47;;;;;;;1.48;0.50;;;;;;;;;;5112506;27;41797;-72
2023/10/29 08:16:15;;;;;;;1.13;0.60;;;;;;;;;;5122010;27;42107;-72
2023/10/29 08:18:43;;;;;;;2.30;0.57;;;;;;;;;;5124021;27;40465;-72
2023/10/29 08:21:11;;;;;;;1.10;0.50;;;;;;;;;;5120947;27;42145;-72
2023/10/29 08:23:39;;;;;;;2.33;0.52;;;;;;;;;;5116984;27;40944;-72
2023/10/29 08:26:11;;;;;;;1.33;0.47;;;;;;;;;;5117977;27;42152;-72
2023/10/29 08:28:39;;;;;;;3.67;0.68;;;;;;;;;;5111659;27;42142;-72
2023/10/29 08:31:08;;;;;;;1.77;0.50;;;;;;;;;;5112669;27;41694;-71
2023/10/29 08:33:36;;;;;;;1.05;0.50;;;;;;;;;;5116407;27;41794;-72
2023/10/29 08:36:05;;;;;;;2.65;0.50;;;;;;;;;;5117694;27;42890;-72
2023/10/29 08:38:33;;;;;;;1.52;0.45;;;;;;;;;;5119177;27;40828;-72
2023/10/29 08:41:00;;;;;;;3.58;0.90;;;;;;;;;;5122792;27;42048;-72
2023/10/29 08:43:30;;;;;;;5.50;1.17;;;;;;;;;;5130456;27;42172;-72
2023/10/29 08:45:58;;;;;;;4.75;0.70;;;;;;;;;;5117466;27;41387;-72
2023/10/29 08:48:26;;;;;;;2.78;0.63;;;;;;;;;;5113552;27;41556;-72
2023/10/29 08:50:54;;;;;;;2.53;0.60;;;;;;;;;;5120243;27;39992;-72
2023/10/29 08:53:22;;;;;;;4.70;0.98;;;;;;;;;;5116171;27;42656;-72
2023/10/29 08:55:51;;;;;;;3.20;1.00;;;;;;;;;;5115573;27;43408;-70
2023/10/29 08:58:20;;;;;;;2.20;0.57;;;;;;;;;;5116297;27;41157;-66
2023/10/29 09:00:51;;;;;;;6.65;1.05;;;;;;;;;;5123641;27;42626;-64
2023/10/29 09:03:19;;;;;;;5.47;1.00;;;;;;;;;;5117509;27;41941;-61
2023/10/29 09:05:47;;;;;;;4.38;1.20;;;;;;;;;;5119601;27;40523;-62
2023/10/29 09:08:16;;;;;;;6.35;0.95;;;;;;;;;;5114338;27;41556;-61
2023/10/29 09:10:45;;;;;;;8.55;0.88;;;;;;;;;;5120789;27;40101;-61
2023/10/29 09:13:13;;;;;;;7.57;1.55;;;;;;;;;;5111898;27;41652;-61
2023/10/29 09:15:42;;;;;;;9.52;1.08;;;;;;;;;;5121744;27;41456;-63
2023/10/29 09:18:12;;;;;;;6.80;0.98;;;;;;;;;;5119372;27;41476;-64
2023/10/29 09:20:40;;;;;;;3.28;0.88;;;;;;;;;;5112098;27;42194;-64
2023/10/29 09:23:09;;;;;;;4.63;0.95;;;;;;;;;;5128901;27;41755;-64
2023/10/29 09:25:37;;;;;;;7.80;1.17;;;;;;;;;;5118623;27;39797;-62
2023/10/29 09:28:06;;;;;;;3.80;0.80;;;;;;;;;;5115349;27;41124;-62
2023/10/29 09:30:34;;;;;;;4.22;1.08;;;;;;;;;;5119489;27;40246;-63
2023/10/29 09:33:02;;;;;;;3.88;0.82;;;;;;;;;;5123856;27;42023;-63
2023/10/29 09:35:32;;;;;;;7.93;1.10;;;;;;;;;;5113758;27;41957;-63
2023/10/29 09:38:00;;;;;;;4.82;1.02;;;;;;;;;;5127563;27;41386;-63
2023/10/29 09:40:29;;;;;;;9.07;0.82;;;;;;;;;;5122868;27;41754;-64
2023/10/29 09:42:57;;;;;;;12.75;0.90;;;;;;;;;;5118791;27;41701;-63
2023/10/29 09:45:25;;;;;;;10.68;1.05;;;;;;;;;;5126480;27;40202;-63
2023/10/29 09:47:54;;;;;;;7.70;0.75;;;;;;;;;;5123124;27;42193;-63
2023/10/29 09:50:23;;;;;;;2.60;0.77;;;;;;;;;;5126669;27;40014;-63
2023/10/29 09:52:53;;;;;;;3.85;0.93;;;;;;;;;;5125783;27;41991;-63
2023/10/29 09:55:21;;;;;;;6.32;1.05;;;;;;;;;;5126713;27;42033;-63
2023/10/29 09:57:49;;;;;;;11.65;1.77;;;;;;;;;;5125959;27;39946;-63
2023/10/29 10:00:17;;;;;;;4.32;1.05;;;;;;;;;;5125884;27;41311;-63
2023/10/29 10:02:51;;;;;;;5.55;1.02;;;;;;;;;;5126421;27;43025;-63
2023/10/29 10:05:20;;;;;;;4.60;0.90;;;;;;;;;;5127479;27;40865;-63
2023/10/29 10:07:48;;;;;;;4.43;1.42;;;;;;;;;;5114064;27;42183;-63
2023/10/29 10:10:19;;;;;;;3.40;0.95;;;;;;;;;;5129482;27;42026;-63
2023/10/29 10:12:47;;;;;;;2.97;0.80;;;;;;;;;;5126307;27;40922;-63
2023/10/29 10:15:16;;;;;;;3.25;0.52;;;;;;;;;;5128276;27;42122;-63
2023/10/29 10:17:48;;;;;;;2.88;0.60;;;;;;;;;;5126247;27;39768;-63
2023/10/29 10:20:20;;;;;;;3.10;0.88;;;;;;;;;;5127090;27;41618;-63
2023/10/29 10:22:48;;;;;;;2.90;0.95;;;;;;;;;;5126109;27;42194;-63
2023/10/29 10:25:19;;;;;;;2.63;0.70;;;;;;;;;;5129009;27;40384;-63
2023/10/29 10:27:47;;;;;;;4.90;0.93;;;;;;;;;;5126575;27;42570;-63
2023/10/29 10:30:29;;;;;;;4.68;0.63;;;;;;;;;;5129697;27;20219;-63
2023/10/29 10:33:08;;;;;;;3.65;0.70;;;;;;;;;;5128061;27;40166;-63
2023/10/29 10:35:38;;;;;;;4.72;0.98;;;;;;;;;;5112685;27;43132;-63
2023/10/29 10:38:06;;;;;;;2.75;0.60;;;;;;;;;;5128271;27;42338;-63
2023/10/29 10:40:35;;;;;;;3.72;0.73;;;;;;;;;;5127075;27;42621;-63
2023/10/29 10:43:03;;;;;;;3.88;0.80;;;;;;;;;;5120182;27;42623;-63
2023/10/29 10:45:32;;;;;;;4.53;0.88;;;;;;;;;;5122610;27;40036;-63
2023/10/29 10:48:03;;;;;;;3.97;0.65;;;;;;;;;;5117245;27;41763;-63
2023/10/29 10:50:32;;;;;;;3.25;0.95;;;;;;;;;;5127424;27;42736;-63
2023/10/29 10:52:59;;;;;;;4.22;0.80;;;;;;;;;;5127223;27;40085;-64
2023/10/29 10:55:27;;;;;;;3.50;1.08;;;;;;;;;;5127344;27;41660;-63
2023/10/29 10:58:15;;;;;;;3.72;0.70;;;;;;;;;;5127821;27;41140;-63
2023/10/29 11:00:43;;;;;;;1.63;0.73;;;;;;;;;;5127038;27;42084;-63
2023/10/29 11:03:11;;;;;;;2.78;0.80;;;;;;;;;;5127225;27;42007;-63
2023/10/29 11:05:58;;;;;;;2.58;0.88;;;;;;;;;;5113663;27;40914;-63
2023/10/29 11:08:27;;;;;;;3.38;0.90;;;;;;;;;;5127153;27;42297;-63
2023/10/29 11:10:55;;;;;;;1.77;0.60;;;;;;;;;;5126338;27;42400;-63
2023/10/29 11:13:26;;;;;;;5.70;1.20;;;;;;;;;;5127828;27;39882;-65
2023/10/29 11:15:54;;;;;;;4.85;0.90;;;;;;;;;;5126230;27;41749;-63
2023/10/29 11:18:29;;;;;;;2.90;0.70;;;;;;;;;;5127599;27;33059;-64
2023/10/29 11:20:59;;;;;;;1.95;0.63;;;;;;;;;;5126937;27;41668;-63
2023/10/29 11:23:27;;;;;;;2.72;0.60;;;;;;;;;;5125965;27;42186;-63
2023/10/29 11:26:14;;;;;;;2.55;0.93;;;;;;;;;;5126572;27;40389;-63
2023/10/29 11:28:45;;;;;;;1.75;0.57;;;;;;;;;;5127136;27;40953;-63
2023/10/29 11:31:13;;;;;;;2.25;0.60;;;;;;;;;;5124745;27;42768;-63
2023/10/29 11:33:42;;;;;;;1.27;0.47;;;;;;;;;;5113381;27;41356;-64
2023/10/29 11:36:38;;;;;;;2.08;0.50;;;;;;;;;;5122042;27;42554;-63
2023/10/29 11:39:24;;;;;;;1.50;0.60;;;;;;;;;;5078827;27;43395;-63
2023/10/29 11:41:52;;;;;;;3.08;0.80;;;;;;;;;;5117168;27;41899;-63
2023/10/29 11:44:25;;;;;;;3.17;1.05;;;;;;;;;;5125939;27;41870;-63
2023/10/29 11:47:02;;;;;;;2.78;0.85;;;;;;;;;;5126926;27;40061;-63
2023/10/29 11:49:31;;;;;;;1.95;0.75;;;;;;;;;;5126796;27;41554;-63
2023/10/29 11:52:02;;;;;;;2.67;0.80;;;;;;;;;;5126136;27;41617;-63
2023/10/29 11:54:29;;;;;;;2.15;0.90;;;;;;;;;;5114332;27;43095;-63
2023/10/29 11:56:57;;;;;;;2.40;0.73;;;;;;;;;;5124869;27;42475;-63
2023/10/29 11:59:27;;;;;;;4.38;1.00;;;;;;;;;;5126064;27;41640;-63
2023/10/29 12:01:55;;;;;;;3.20;1.17;;;;;;;;;;5127164;27;41264;-63
2023/10/29 12:04:28;;;;;;;4.20;0.98;;;;;;;;;;5126481;27;41986;-63
2023/10/29 12:06:57;;;;;;;3.35;1.10;;;;;;;;;;5125959;27;40350;-63
2023/10/29 12:09:27;;;;;;;5.40;1.40;;;;;;;;;;5126562;27;42495;-63
2023/10/29 12:11:55;;;;;;;1.88;0.80;;;;;;;;;;5126625;27;42070;-63
2023/10/29 12:14:39;;;;;;;2.85;1.10;;;;;;;;;;5114803;27;40806;-63
2023/10/29 12:17:07;;;;;;;2.08;0.95;;;;;;;;;;5127434;27;42738;-63
2023/10/29 12:19:36;;;;;;;3.83;0.93;;;;;;;;;;5125165;27;42092;-63
2023/10/29 12:22:04;;;;;;;4.25;0.90;;;;;;;;;;5127016;27;40301;-63
2023/10/29 12:24:32;;;;;;;2.15;0.90;;;;;;;;;;5110447;27;41607;-63
2023/10/29 12:27:00;;;;;;;3.70;0.60;;;;;;;;;;5125514;27;40278;-63
2023/10/29 12:29:28;;;;;;;1.50;0.68;;;;;;;;;;5125882;27;42187;-63
2023/10/29 12:31:58;;;;;;;2.17;0.98;;;;;;;;;;5118457;27;42048;-63
2023/10/29 12:34:27;;;;;;;5.85;0.93;;;;;;;;;;5113102;27;41382;-63
2023/10/29 12:36:55;;;;;;;2.35;0.73;;;;;;;;;;5118965;27;41223;-63
2023/10/29 12:39:23;;;;;;;2.88;1.05;;;;;;;;;;5126257;27;41970;-63
2023/10/29 12:41:51;;;;;;;2.15;1.05;;;;;;;;;;5124769;27;40199;-63
2023/10/29 12:44:21;;;;;;;3.67;0.75;;;;;;;;;;5113983;27;41791;-63
2023/10/29 12:46:49;;;;;;;2.20;0.65;;;;;;;;;;5128960;27;41917;-63
2023/10/29 12:49:25;;;;;;;1.75;0.80;;;;;;;;;;5129044;27;41164;-63
2023/10/29 12:51:54;;;;;;;2.55;0.60;;;;;;;;;;5129290;27;42951;-63
2023/10/29 12:54:23;;;;;;;3.35;0.70;;;;;;;;;;5126110;27;40376;-63
2023/10/29 12:56:52;;;;;;;3.97;1.00;;;;;;;;;;5124674;27;41109;-63
2023/10/29 12:59:21;;;;;;;2.42;0.70;;;;;;;;;;5129483;27;42991;-63
2023/10/29 13:01:50;;;;;;;2.92;0.90;;;;;;;;;;5128251;27;41363;-64
2023/10/29 13:04:18;;;;;;;2.38;0.88;;;;;;;;;;5115346;27;41464;-63
2023/10/29 13:06:47;;;;;;;3.72;1.30;;;;;;;;;;5128935;27;42095;-63
2023/10/29 13:09:18;;;;;;;2.45;0.73;;;;;;;;;;5128692;27;41221;-64
2023/10/29 13:11:46;;;;;;;2.97;0.63;;;;;;;;;;5129032;27;41755;-63
2023/10/29 13:14:14;;;;;;;2.25;0.77;;;;;;;;;;5126534;27;40125;-63
2023/10/29 13:16:42;;;;;;;1.80;0.50;;;;;;;;;;5118114;27;41340;-63
2023/10/29 13:19:11;;;;;;;2.80;0.90;;;;;;;;;;5128429;27;42642;-63
2023/10/29 13:21:39;;;;;;;1.95;0.88;;;;;;;;;;5128668;27;40159;-67
2023/10/29 13:24:08;;;;;;;10.10;0.80;;;;;;;;;;5119507;27;40186;-65
2023/10/29 13:26:37;;;;;;;5.72;1.10;;;;;;;;;;5119649;27;42263;-65
2023/10/29 13:29:06;;;;;;;7.07;0.65;;;;;;;;;;5122089;27;41310;-65
2023/10/29 13:31:34;;;;;;;8.77;1.10;;;;;;;;;;5118326;27;43180;-65
2023/10/29 13:34:02;;;;;;;3.13;0.52;;;;;;;;;;5121538;27;41296;-65
2023/10/29 13:36:30;;;;;;;5.50;0.98;;;;;;;;;;5117045;27;42621;-65
2023/10/29 13:38:58;;;;;;;2.42;0.68;;;;;;;;;;5123419;27;41519;-65
2023/10/29 13:41:27;;;;;;;5.88;0.70;;;;;;;;;;5119045;27;40230;-65
2023/10/29 13:43:55;;;;;;;1.58;0.50;;;;;;;;;;5119604;27;41463;-65
2023/10/29 13:46:23;;;;;;;2.25;0.80;;;;;;;;;;5126618;27;42121;-65
2023/10/29 13:48:53;;;;;;;3.78;0.70;;;;;;;;;;5112622;27;41357;-65
2023/10/29 13:51:21;;;;;;;2.08;0.60;;;;;;;;;;5126334;27;41540;-65
2023/10/29 13:53:49;;;;;;;1.85;0.50;;;;;;;;;;5126150;27;40864;-65
2023/10/29 13:56:17;;;;;;;1.02;0.40;;;;;;;;;;5127783;27;41835;-65
2023/10/29 13:58:46;;;;;;;4.07;0.63;;;;;;;;;;5112147;27;42634;-65
2023/10/29 14:01:17;;;;;;;2.38;0.75;;;;;;;;;;5128278;27;40803;-65
2023/10/29 14:03:46;;;;;;;1.60;0.50;;;;;;;;;;5126695;27;42625;-65
2023/10/29 14:06:15;;;;;;;3.35;0.75;;;;;;;;;;5128238;27;42009;-65
2023/10/29 14:08:43;;;;;;;3.00;0.80;;;;;;;;;;5127696;27;40328;-65
2023/10/29 14:11:13;;;;;;;3.30;0.60;;;;;;;;;;5128685;27;41609;-65
2023/10/29 14:13:42;;;;;;;1.73;0.60;;;;;;;;;;5127959;27;42778;-65
2023/10/29 14:16:14;;;;;;;2.20;0.68;;;;;;;;;;5127955;27;41911;-64
2023/10/29 14:18:43;;;;;;;1.80;0.60;;;;;;;;;;5127320;27;42061;-64
2023/10/29 14:21:12;;;;;;;4.88;0.77;;;;;;;;;;5121557;27;40178;-65
2023/10/29 14:23:41;;;;;;;5.25;0.73;;;;;;;;;;5113995;27;41535;-65
2023/10/29 14:26:09;;;;;;;4.45;0.70;;;;;;;;;;5125607;27;41898;-65
2023/10/29 14:28:37;;;;;;;2.13;0.50;;;;;;;;;;5127713;27;41286;-67
2023/10/29 14:31:05;;;;;;;2.53;0.77;;;;;;;;;;5125809;27;41787;-67
2023/10/29 14:33:34;;;;;;;4.47;0.90;;;;;;;;;;5122058;27;41825;-66
2023/10/29 14:36:02;;;;;;;5.30;0.85;;;;;;;;;;5115110;27;40135;-66
2023/10/29 14:38:31;;;;;;;3.50;0.70;;;;;;;;;;5127260;27;43153;-66
2023/10/29 14:41:00;;;;;;;1.58;0.70;;;;;;;;;;5124924;27;41480;-66
2023/10/29 14:43:27;;;;;;;4.18;0.70;;;;;;;;;;5125545;27;41645;-65
2023/10/29 14:45:56;;;;;;;2.55;1.00;;;;;;;;;;5126244;27;41861;-65
2023/10/29 14:48:24;;;;;;;2.55;0.65;;;;;;;;;;5126450;27;42311;-65
2023/10/29 14:50:53;;;;;;;14.52;0.98;;;;;;;;;;5125973;27;41548;-65
2023/10/29 14:53:21;;;;;;;1.83;0.70;;;;;;;;;;5124778;27;41974;-65